createdAt,value
2019-01-14T00:00:14.735Z,0.00
2019-01-14T00:01:14.725Z,0.00
2019-01-14T00:02:14.722Z,0.00
2019-01-14T00:03:14.703Z,0.00
2019-01-14T00:04:14.689Z,0.00
2019-01-14T00:05:14.681Z,0.00
2019-01-14T00:06:14.674Z,0.00
2019-01-14T00:07:14.677Z,0.00
2019-01-14T00:08:14.648Z,0.00
2019-01-14T00:09:14.636Z,0.00
2019-01-14T00:10:14.627Z,0.00
2019-01-14T00:11:14.615Z,0.00
2019-01-14T00:12:14.641Z,0.00
2019-01-14T00:13:14.593Z,0.00
2019-01-14T00:14:14.595Z,0.00
2019-01-14T00:15:14.576Z,0.00
2019-01-14T00:16:14.567Z,0.00
2019-01-14T00:17:14.558Z,0.00
2019-01-14T00:18:14.560Z,0.00
2019-01-14T00:19:14.531Z,0.00
2019-01-14T00:20:14.525Z,0.00
2019-01-14T00:21:14.509Z,0.00
2019-01-14T00:22:14.503Z,0.00
2019-01-14T00:23:14.502Z,0.00
2019-01-14T00:24:14.510Z,0.00
2019-01-14T00:25:14.467Z,0.00
2019-01-14T00:26:14.455Z,0.00
2019-01-14T00:27:14.447Z,0.00
2019-01-14T00:28:14.446Z,0.00
2019-01-14T00:29:14.429Z,0.00
2019-01-14T00:30:14.412Z,0.00
2019-01-14T00:31:14.403Z,0.00
2019-01-14T00:32:14.390Z,0.00
2019-01-14T00:33:14.391Z,0.00
2019-01-14T00:34:14.370Z,0.00
2019-01-14T00:35:14.372Z,0.00
2019-01-14T00:36:17.693Z,0.00
2019-01-14T00:37:14.342Z,0.00
2019-01-14T00:38:14.341Z,0.00
2019-01-14T00:39:14.316Z,0.00
2019-01-14T00:40:14.305Z,0.00
2019-01-14T00:41:14.297Z,0.00
2019-01-14T00:42:14.284Z,0.00
2019-01-14T00:43:14.317Z,0.00
2019-01-14T00:44:14.267Z,0.00
2019-01-14T00:45:14.255Z,0.00
2019-01-14T00:46:14.248Z,0.00
2019-01-14T00:47:14.234Z,0.00
2019-01-14T00:48:14.223Z,0.00
2019-01-14T00:49:14.227Z,0.00
2019-01-14T00:50:14.210Z,0.00
2019-01-14T00:51:14.193Z,0.00
2019-01-14T00:52:14.188Z,0.00
2019-01-14T00:53:14.180Z,0.00
2019-01-14T00:54:14.189Z,0.00
2019-01-14T00:55:14.153Z,0.00
2019-01-14T00:56:14.139Z,0.00
2019-01-14T00:57:14.128Z,0.00
2019-01-14T00:58:14.120Z,0.00
2019-01-14T00:59:14.116Z,0.00
2019-01-14T01:00:14.094Z,0.00
2019-01-14T01:01:14.084Z,0.00
2019-01-14T01:02:14.075Z,0.00
2019-01-14T01:03:14.067Z,0.00
2019-01-14T01:04:14.063Z,0.00
2019-01-14T01:05:14.042Z,0.00
2019-01-14T01:06:14.061Z,0.00
2019-01-14T01:07:14.025Z,0.00
2019-01-14T01:08:14.014Z,0.00
2019-01-14T01:09:14.016Z,0.00
2019-01-14T01:10:14.003Z,0.00
2019-01-14T01:11:13.980Z,0.00
2019-01-14T01:12:14.035Z,0.00
2019-01-14T01:13:14.050Z,0.00
2019-01-14T01:14:13.989Z,0.00
2019-01-14T01:15:13.956Z,0.00
2019-01-14T01:16:13.931Z,0.00
2019-01-14T01:17:13.922Z,0.00
2019-01-14T01:18:13.919Z,0.00
2019-01-14T01:19:13.933Z,0.00
2019-01-14T01:20:13.912Z,0.00
2019-01-14T01:21:13.875Z,0.00
2019-01-14T01:22:13.867Z,0.00
2019-01-14T01:23:13.853Z,0.00
2019-01-14T01:24:13.857Z,0.00
2019-01-14T01:25:23.148Z,0.00
2019-01-14T01:26:13.814Z,0.00
2019-01-14T01:27:13.803Z,0.00
2019-01-14T01:28:13.792Z,0.00
2019-01-14T01:29:13.783Z,0.00
2019-01-14T01:30:13.799Z,0.00
2019-01-14T01:31:13.761Z,0.00
2019-01-14T01:32:13.750Z,0.00
2019-01-14T01:33:13.737Z,0.00
2019-01-14T01:34:13.728Z,0.00
2019-01-14T01:35:13.729Z,0.00
2019-01-14T01:36:13.707Z,0.00
2019-01-14T01:37:15.276Z,0.00
2019-01-14T01:38:13.687Z,0.00
2019-01-14T01:39:13.675Z,0.00
2019-01-14T01:40:13.675Z,0.00
2019-01-14T01:41:13.653Z,0.00
2019-01-14T01:42:13.643Z,0.00
2019-01-14T01:43:13.632Z,0.00
2019-01-14T01:44:13.621Z,0.00
2019-01-14T01:45:13.625Z,0.00
2019-01-14T01:46:13.599Z,0.00
2019-01-14T01:47:13.592Z,0.00
2019-01-14T01:48:13.580Z,0.00
2019-01-14T01:49:13.569Z,0.00
2019-01-14T01:50:13.570Z,0.00
2019-01-14T01:51:13.548Z,0.00
2019-01-14T01:52:13.538Z,0.00
2019-01-14T01:53:13.532Z,0.00
2019-01-14T01:54:13.517Z,0.00
2019-01-14T01:55:13.519Z,0.00
2019-01-14T01:56:13.496Z,0.00
2019-01-14T01:57:14.989Z,0.00
2019-01-14T01:58:13.474Z,0.00
2019-01-14T01:59:13.464Z,0.00
2019-01-14T02:00:13.469Z,0.00
2019-01-14T02:01:13.439Z,0.00
2019-01-14T02:02:13.439Z,0.00
2019-01-14T02:03:13.419Z,0.00
2019-01-14T02:04:13.409Z,0.00
2019-01-14T02:05:13.416Z,0.00
2019-01-14T02:06:13.387Z,0.00
2019-01-14T02:07:13.376Z,0.00
2019-01-14T02:08:13.365Z,0.00
2019-01-14T02:09:13.357Z,0.00
2019-01-14T02:10:13.355Z,0.00
2019-01-14T02:11:13.333Z,0.00
2019-01-14T02:12:13.324Z,0.00
2019-01-14T02:13:13.312Z,0.00
2019-01-14T02:14:13.303Z,0.00
2019-01-14T02:15:13.302Z,0.00
2019-01-14T02:16:13.281Z,0.00
2019-01-14T02:17:13.269Z,0.00
2019-01-14T02:18:13.263Z,0.00
2019-01-14T02:19:13.251Z,0.00
2019-01-14T02:20:13.249Z,0.00
2019-01-14T02:21:13.228Z,0.00
2019-01-14T02:22:13.216Z,0.00
2019-01-14T02:23:13.206Z,0.00
2019-01-14T02:24:13.195Z,0.00
2019-01-14T02:25:13.199Z,0.00
2019-01-14T02:26:13.176Z,0.00
2019-01-14T02:27:13.164Z,0.00
2019-01-14T02:28:13.153Z,0.00
2019-01-14T02:29:13.143Z,0.00
2019-01-14T02:30:13.147Z,0.00
2019-01-14T02:31:13.120Z,0.00
2019-01-14T02:32:13.110Z,0.00
2019-01-14T02:33:13.100Z,0.00
2019-01-14T02:34:13.089Z,0.00
2019-01-14T02:35:13.090Z,0.00
2019-01-14T02:36:13.065Z,0.00
2019-01-14T02:37:13.065Z,0.00
2019-01-14T02:38:13.047Z,0.00
2019-01-14T02:39:13.032Z,0.00
2019-01-14T02:40:13.045Z,0.00
2019-01-14T02:41:13.012Z,0.00
2019-01-14T02:42:13.000Z,0.00
2019-01-14T02:43:12.992Z,0.00
2019-01-14T02:44:12.984Z,0.00
2019-01-14T02:45:12.970Z,0.00
2019-01-14T02:46:12.973Z,0.00
2019-01-14T02:47:12.954Z,0.00
2019-01-14T02:48:12.936Z,0.00
2019-01-14T02:49:12.927Z,0.00
2019-01-14T02:50:12.921Z,0.00
2019-01-14T02:51:12.928Z,0.00
2019-01-14T02:52:12.898Z,0.00
2019-01-14T02:53:12.885Z,0.00
2019-01-14T02:54:12.877Z,0.00
2019-01-14T02:55:12.961Z,0.00
2019-01-14T02:56:12.860Z,0.00
2019-01-14T02:57:12.845Z,0.00
2019-01-14T02:58:12.828Z,0.00
2019-01-14T02:59:12.819Z,0.00
2019-01-14T03:00:12.807Z,0.00
2019-01-14T03:01:12.809Z,0.00
2019-01-14T03:02:12.789Z,0.00
2019-01-14T03:03:12.778Z,0.00
2019-01-14T03:04:12.763Z,0.00
2019-01-14T03:05:12.753Z,0.00
2019-01-14T03:06:12.754Z,0.00
2019-01-14T03:07:12.734Z,0.00
2019-01-14T03:08:12.723Z,0.00
2019-01-14T03:09:12.712Z,0.00
2019-01-14T03:10:12.698Z,0.00
2019-01-14T03:11:12.698Z,0.00
2019-01-14T03:12:12.678Z,0.00
2019-01-14T03:13:12.669Z,0.00
2019-01-14T03:14:12.659Z,0.00
2019-01-14T03:15:12.645Z,0.00
2019-01-14T03:16:12.642Z,0.00
2019-01-14T03:17:12.623Z,0.00
2019-01-14T03:18:12.614Z,0.00
2019-01-14T03:19:12.608Z,0.00
2019-01-14T03:20:12.590Z,0.00
2019-01-14T03:21:12.592Z,0.00
2019-01-14T03:22:12.570Z,0.00
2019-01-14T03:23:12.559Z,0.00
2019-01-14T03:24:12.547Z,0.00
2019-01-14T03:25:12.540Z,0.00
2019-01-14T03:26:12.535Z,0.00
2019-01-14T03:27:12.515Z,0.00
2019-01-14T03:28:12.503Z,0.00
2019-01-14T03:29:12.493Z,0.00
2019-01-14T03:30:12.488Z,0.00
2019-01-14T03:31:12.485Z,0.00
2019-01-14T03:32:12.462Z,0.00
2019-01-14T03:33:12.453Z,0.00
2019-01-14T03:34:12.443Z,0.00
2019-01-14T03:35:12.428Z,0.00
2019-01-14T03:36:12.436Z,0.00
2019-01-14T03:37:12.406Z,0.00
2019-01-14T03:38:12.395Z,0.00
2019-01-14T03:39:12.382Z,0.00
2019-01-14T03:40:12.381Z,0.00
2019-01-14T03:41:12.376Z,0.00
2019-01-14T03:42:12.352Z,0.00
2019-01-14T03:43:12.342Z,0.00
2019-01-14T03:44:12.328Z,0.00
2019-01-14T03:45:12.338Z,0.00
2019-01-14T03:46:12.369Z,0.00
2019-01-14T03:47:12.295Z,0.00
2019-01-14T03:48:12.288Z,0.00
2019-01-14T03:49:12.275Z,0.00
2019-01-14T03:50:12.264Z,0.00
2019-01-14T03:51:12.282Z,0.00
2019-01-14T03:52:12.248Z,0.00
2019-01-14T03:53:12.234Z,0.00
2019-01-14T03:54:12.222Z,0.00
2019-01-14T03:55:12.210Z,0.00
2019-01-14T03:56:12.212Z,0.00
2019-01-14T03:57:12.189Z,0.00
2019-01-14T03:58:12.177Z,0.00
2019-01-14T03:59:12.177Z,0.00
2019-01-14T04:00:12.161Z,0.00
2019-01-14T04:01:12.148Z,0.00
2019-01-14T04:02:12.146Z,0.00
2019-01-14T04:03:12.123Z,0.00
2019-01-14T04:04:12.115Z,0.00
2019-01-14T04:05:12.101Z,0.00
2019-01-14T04:06:12.096Z,0.00
2019-01-14T04:07:13.835Z,0.00
2019-01-14T04:08:12.103Z,0.00
2019-01-14T04:09:12.059Z,0.00
2019-01-14T04:10:12.056Z,0.00
2019-01-14T04:11:12.036Z,0.00
2019-01-14T04:12:12.042Z,0.00
2019-01-14T04:13:12.018Z,0.00
2019-01-14T04:14:12.005Z,0.00
2019-01-14T04:15:11.996Z,0.00
2019-01-14T04:16:11.981Z,0.00
2019-01-14T04:17:11.983Z,0.00
2019-01-14T04:18:11.962Z,0.00
2019-01-14T04:19:11.950Z,0.00
2019-01-14T04:20:11.939Z,0.00
2019-01-14T04:21:11.927Z,0.00
2019-01-14T04:22:11.936Z,0.00
2019-01-14T04:23:11.910Z,0.00
2019-01-14T04:24:11.899Z,0.00
2019-01-14T04:25:11.887Z,0.00
2019-01-14T04:26:11.874Z,0.00
2019-01-14T04:27:11.877Z,0.00
2019-01-14T04:28:11.853Z,0.00
2019-01-14T04:29:11.856Z,0.00
2019-01-14T04:30:11.831Z,0.00
2019-01-14T04:31:11.823Z,0.00
2019-01-14T04:32:11.821Z,0.00
2019-01-14T04:33:11.797Z,0.00
2019-01-14T04:34:11.788Z,0.00
2019-01-14T04:35:11.779Z,0.00
2019-01-14T04:36:11.765Z,0.00
2019-01-14T04:37:11.765Z,0.00
2019-01-14T04:38:11.753Z,0.00
2019-01-14T04:39:11.734Z,0.00
2019-01-14T04:40:11.729Z,0.00
2019-01-14T04:41:11.713Z,0.00
2019-01-14T04:42:11.719Z,0.00
2019-01-14T04:43:11.690Z,0.00
2019-01-14T04:44:11.683Z,0.00
2019-01-14T04:45:11.669Z,0.00
2019-01-14T04:46:11.666Z,0.00
2019-01-14T04:47:11.658Z,0.00
2019-01-14T04:48:11.635Z,0.00
2019-01-14T04:49:11.630Z,0.00
2019-01-14T04:50:11.617Z,0.00
2019-01-14T04:51:11.606Z,0.00
2019-01-14T04:52:11.604Z,0.00
2019-01-14T04:53:11.595Z,0.00
2019-01-14T04:54:11.575Z,0.00
2019-01-14T04:55:11.564Z,0.00
2019-01-14T04:56:11.555Z,0.00
2019-01-14T04:57:11.540Z,0.00
2019-01-14T04:58:11.542Z,0.00
2019-01-14T04:59:11.516Z,0.00
2019-01-14T05:00:11.554Z,0.00
2019-01-14T05:01:11.504Z,0.00
2019-01-14T05:02:11.566Z,0.00
2019-01-14T05:03:11.487Z,0.00
2019-01-14T05:04:11.465Z,0.00
2019-01-14T05:05:11.455Z,0.00
2019-01-14T05:06:11.444Z,0.00
2019-01-14T05:07:11.435Z,0.00
2019-01-14T05:08:11.439Z,0.00
2019-01-14T05:09:11.414Z,0.00
2019-01-14T05:10:11.496Z,0.00
2019-01-14T05:11:11.395Z,0.00
2019-01-14T05:12:11.380Z,0.00
2019-01-14T05:13:11.391Z,0.00
2019-01-14T05:14:11.360Z,0.00
2019-01-14T05:15:11.345Z,0.00
2019-01-14T05:16:11.339Z,0.00
2019-01-14T05:17:11.329Z,0.00
2019-01-14T05:18:11.325Z,0.00
2019-01-14T05:19:11.305Z,0.00
2019-01-14T05:20:11.298Z,0.00
2019-01-14T05:21:11.285Z,0.00
2019-01-14T05:22:11.274Z,0.00
2019-01-14T05:23:11.280Z,0.00
2019-01-14T05:24:11.252Z,0.00
2019-01-14T05:25:11.244Z,0.00
2019-01-14T05:26:11.232Z,0.00
2019-01-14T05:27:11.221Z,0.00
2019-01-14T05:28:11.224Z,0.00
2019-01-14T05:29:11.198Z,0.00
2019-01-14T05:30:11.189Z,0.00
2019-01-14T05:31:11.175Z,0.00
2019-01-14T05:32:11.165Z,0.00
2019-01-14T05:33:11.171Z,0.00
2019-01-14T05:34:11.150Z,0.00
2019-01-14T05:35:11.136Z,0.00
2019-01-14T05:36:11.126Z,0.00
2019-01-14T05:37:11.114Z,0.00
2019-01-14T05:38:11.121Z,0.00
2019-01-14T05:39:11.093Z,0.00
2019-01-14T05:40:11.086Z,0.00
2019-01-14T05:41:11.074Z,0.00
2019-01-14T05:42:11.065Z,0.00
2019-01-14T05:43:11.063Z,0.00
2019-01-14T05:44:11.039Z,0.00
2019-01-14T05:45:11.032Z,0.00
2019-01-14T05:46:11.018Z,0.00
2019-01-14T05:47:11.009Z,0.00
2019-01-14T05:48:11.012Z,0.00
2019-01-14T05:49:10.987Z,0.00
2019-01-14T05:50:10.976Z,0.00
2019-01-14T05:51:10.969Z,0.00
2019-01-14T05:52:10.953Z,0.00
2019-01-14T05:53:10.979Z,0.00
2019-01-14T05:54:10.937Z,0.00
2019-01-14T05:55:10.925Z,0.00
2019-01-14T05:56:10.912Z,0.00
2019-01-14T05:57:10.915Z,0.00
2019-01-14T05:58:10.906Z,0.00
2019-01-14T05:59:10.885Z,0.00
2019-01-14T06:00:10.871Z,0.00
2019-01-14T06:01:10.859Z,0.00
2019-01-14T06:02:10.851Z,0.00
2019-01-14T06:03:10.854Z,0.00
2019-01-14T06:04:10.833Z,0.00
2019-01-14T06:05:10.819Z,0.00
2019-01-14T06:06:10.806Z,0.00
2019-01-14T06:07:10.799Z,0.00
2019-01-14T06:08:10.826Z,0.00
2019-01-14T06:09:10.776Z,0.00
2019-01-14T06:10:10.765Z,0.00
2019-01-14T06:11:10.754Z,0.00
2019-01-14T06:12:10.745Z,0.00
2019-01-14T06:13:10.741Z,0.00
2019-01-14T06:14:10.734Z,0.00
2019-01-14T06:15:10.714Z,0.00
2019-01-14T06:16:10.706Z,0.00
2019-01-14T06:17:10.688Z,0.00
2019-01-14T06:18:10.678Z,0.00
2019-01-14T06:19:10.677Z,0.00
2019-01-14T06:20:10.656Z,0.00
2019-01-14T06:21:10.650Z,0.00
2019-01-14T06:22:10.642Z,0.00
2019-01-14T06:23:10.629Z,0.00
2019-01-14T06:24:10.627Z,0.00
2019-01-14T06:25:10.605Z,0.00
2019-01-14T06:26:10.593Z,0.00
2019-01-14T06:27:10.599Z,0.00
2019-01-14T06:28:10.574Z,0.00
2019-01-14T06:29:10.574Z,0.00
2019-01-14T06:30:10.550Z,0.00
2019-01-14T06:31:10.542Z,0.00
2019-01-14T06:32:10.532Z,0.00
2019-01-14T06:33:10.522Z,0.00
2019-01-14T06:34:10.522Z,0.00
2019-01-14T06:35:10.498Z,0.00
2019-01-14T06:36:10.553Z,0.00
2019-01-14T06:37:10.479Z,0.00
2019-01-14T06:38:10.467Z,4.00
2019-01-14T06:39:10.466Z,0.00
2019-01-14T06:40:10.452Z,0.00
2019-01-14T06:41:10.433Z,4.00
2019-01-14T06:42:10.426Z,4.00
2019-01-14T06:43:10.413Z,4.00
2019-01-14T06:44:10.412Z,0.00
2019-01-14T06:45:10.392Z,0.00
2019-01-14T06:46:10.380Z,0.00
2019-01-14T06:47:10.370Z,0.00
2019-01-14T06:48:10.367Z,4.00
2019-01-14T06:49:10.368Z,4.00
2019-01-14T06:50:10.339Z,4.00
2019-01-14T06:51:10.330Z,4.00
2019-01-14T06:52:10.317Z,4.00
2019-01-14T06:53:10.307Z,4.00
2019-01-14T06:54:10.307Z,8.00
2019-01-14T06:55:10.286Z,8.00
2019-01-14T06:56:10.275Z,8.00
2019-01-14T06:57:10.263Z,8.00
2019-01-14T06:58:10.253Z,16.00
2019-01-14T06:59:10.252Z,20.00
2019-01-14T07:00:10.232Z,28.00
2019-01-14T07:01:10.222Z,32.00
2019-01-14T07:02:10.211Z,40.00
2019-01-14T07:03:10.198Z,40.00
2019-01-14T07:04:10.200Z,52.00
2019-01-14T07:05:10.180Z,56.00
2019-01-14T07:06:10.167Z,64.00
2019-01-14T07:07:10.157Z,72.00
2019-01-14T07:08:10.149Z,80.00
2019-01-14T07:09:10.150Z,84.00
2019-01-14T07:10:10.126Z,92.00
2019-01-14T07:11:10.114Z,96.00
2019-01-14T07:12:10.109Z,100.00
2019-01-14T07:13:10.105Z,108.00
2019-01-14T07:14:10.094Z,112.00
2019-01-14T07:15:10.070Z,116.00
2019-01-14T07:16:10.060Z,124.00
2019-01-14T07:17:10.050Z,128.00
2019-01-14T07:18:10.054Z,140.00
2019-01-14T07:19:10.041Z,148.00
2019-01-14T07:20:10.017Z,164.00
2019-01-14T07:21:10.021Z,180.00
2019-01-14T07:22:09.999Z,192.00
2019-01-14T07:23:09.986Z,200.00
2019-01-14T07:24:09.991Z,208.00
2019-01-14T07:25:09.971Z,224.00
2019-01-14T07:26:09.954Z,240.00
2019-01-14T07:27:09.943Z,264.00
2019-01-14T07:28:09.933Z,280.00
2019-01-14T07:29:09.958Z,280.00
2019-01-14T07:30:09.913Z,252.00
2019-01-14T07:31:09.900Z,260.00
2019-01-14T07:32:09.891Z,276.00
2019-01-14T07:33:09.879Z,296.00
2019-01-14T07:34:09.868Z,276.00
2019-01-14T07:35:09.873Z,264.00
2019-01-14T07:36:09.878Z,276.00
2019-01-14T07:37:09.836Z,296.00
2019-01-14T07:38:09.828Z,320.00
2019-01-14T07:39:09.817Z,340.00
2019-01-14T07:40:09.815Z,356.00
2019-01-14T07:41:09.793Z,360.00
2019-01-14T07:42:09.958Z,364.00
2019-01-14T07:43:09.773Z,364.00
2019-01-14T07:44:09.760Z,380.00
2019-01-14T07:45:09.762Z,396.00
2019-01-14T07:46:09.742Z,404.00
2019-01-14T07:47:09.732Z,436.00
2019-01-14T07:48:09.724Z,472.00
2019-01-14T07:49:09.714Z,504.00
2019-01-14T07:50:09.708Z,536.00
2019-01-14T07:51:09.688Z,560.00
2019-01-14T07:52:09.677Z,580.00
2019-01-14T07:53:09.671Z,524.00
2019-01-14T07:54:09.663Z,576.00
2019-01-14T07:55:09.655Z,580.00
2019-01-14T07:56:09.664Z,616.00
2019-01-14T07:57:09.620Z,668.00
2019-01-14T07:58:09.612Z,708.00
2019-01-14T07:59:09.627Z,732.00
2019-01-14T08:00:09.626Z,700.00
2019-01-14T08:01:09.592Z,664.00
2019-01-14T08:02:09.587Z,668.00
2019-01-14T08:03:09.561Z,744.00
2019-01-14T08:04:09.545Z,772.00
2019-01-14T08:05:09.560Z,800.00
2019-01-14T08:06:09.526Z,844.00
2019-01-14T08:07:09.520Z,892.00
2019-01-14T08:08:14.001Z,944.00
2019-01-14T08:09:09.527Z,1004.00
2019-01-14T08:10:09.495Z,1008.00
2019-01-14T08:11:09.471Z,1088.00
2019-01-14T08:12:09.464Z,1180.00
2019-01-14T08:13:09.449Z,1176.00
2019-01-14T08:14:09.442Z,1228.00
2019-01-14T08:15:09.453Z,1312.00
2019-01-14T08:16:09.419Z,1320.00
2019-01-14T08:17:09.423Z,1316.00
2019-01-14T08:18:09.406Z,1432.00
2019-01-14T08:19:09.387Z,1872.00
2019-01-14T08:20:09.408Z,1432.00
2019-01-14T08:21:09.367Z,1484.00
2019-01-14T08:22:09.356Z,1404.00
2019-01-14T08:23:09.347Z,1452.00
2019-01-14T08:24:09.334Z,1520.00
2019-01-14T08:25:09.334Z,1560.00
2019-01-14T08:26:09.318Z,1592.00
2019-01-14T08:27:09.305Z,1744.00
2019-01-14T08:28:09.294Z,1792.00
2019-01-14T08:29:09.352Z,1948.00
2019-01-14T08:30:09.284Z,1700.00
2019-01-14T08:31:09.262Z,1744.00
2019-01-14T08:32:09.251Z,1692.00
2019-01-14T08:33:09.241Z,1692.00
2019-01-14T08:34:09.227Z,1732.00
2019-01-14T08:35:09.235Z,1884.00
2019-01-14T08:36:09.208Z,2072.00
2019-01-14T08:37:09.199Z,2088.00
2019-01-14T08:38:09.184Z,2068.00
2019-01-14T08:39:09.181Z,2120.00
2019-01-14T08:40:09.176Z,2368.00
2019-01-14T08:41:09.217Z,2692.00
2019-01-14T08:42:09.142Z,2940.00
2019-01-14T08:43:09.136Z,2916.00
2019-01-14T08:44:09.120Z,2940.00
2019-01-14T08:45:09.151Z,3332.00
2019-01-14T08:46:09.102Z,3264.00
2019-01-14T08:47:09.090Z,3016.00
2019-01-14T08:48:09.079Z,2880.00
2019-01-14T08:49:09.064Z,2684.00
2019-01-14T08:50:09.056Z,2652.00
2019-01-14T08:51:09.054Z,2796.00
2019-01-14T08:52:09.036Z,2820.00
2019-01-14T08:53:09.025Z,2772.00
2019-01-14T08:54:09.049Z,2928.00
2019-01-14T08:55:09.000Z,3292.00
2019-01-14T08:56:09.002Z,3616.00
2019-01-14T08:57:08.990Z,3608.00
2019-01-14T08:58:08.974Z,3800.00
2019-01-14T08:59:08.963Z,3784.00
2019-01-14T09:00:09.016Z,3408.00
2019-01-14T09:01:09.038Z,3560.00
2019-01-14T09:02:08.941Z,2644.00
2019-01-14T09:03:08.923Z,2828.00
2019-01-14T09:04:08.907Z,3280.00
2019-01-14T09:05:08.895Z,3276.00
2019-01-14T09:06:08.915Z,3344.00
2019-01-14T09:07:08.875Z,3232.00
2019-01-14T09:08:08.869Z,3140.00
2019-01-14T09:09:08.851Z,3100.00
2019-01-14T09:10:09.532Z,3752.00
2019-01-14T09:11:08.847Z,4024.00
2019-01-14T09:12:08.868Z,4080.00
2019-01-14T09:13:08.849Z,4500.00
2019-01-14T09:14:08.838Z,5420.00
2019-01-14T09:15:08.790Z,5844.00
2019-01-14T09:16:08.852Z,5536.00
2019-01-14T09:17:08.770Z,5556.00
2019-01-14T09:18:08.754Z,5608.00
2019-01-14T09:19:08.752Z,5568.00
2019-01-14T09:20:08.735Z,5784.00
2019-01-14T09:21:08.741Z,5756.00
2019-01-14T09:22:08.714Z,5692.00
2019-01-14T09:23:08.701Z,5228.00
2019-01-14T09:24:08.691Z,5832.00
2019-01-14T09:25:08.681Z,6264.00
2019-01-14T09:26:08.683Z,6028.00
2019-01-14T09:27:08.686Z,5864.00
2019-01-14T09:28:08.650Z,5896.00
2019-01-14T09:29:08.640Z,5860.00
2019-01-14T09:30:08.632Z,5960.00
2019-01-14T09:31:08.634Z,5956.00
2019-01-14T09:32:08.604Z,5928.00
2019-01-14T09:33:08.594Z,5948.00
2019-01-14T09:34:08.583Z,5956.00
2019-01-14T09:35:08.589Z,5888.00
2019-01-14T09:36:08.573Z,5876.00
2019-01-14T09:37:08.554Z,5948.00
2019-01-14T09:38:08.805Z,5912.00
2019-01-14T09:39:09.214Z,6040.00
2019-01-14T09:40:09.211Z,6080.00
2019-01-14T09:41:10.202Z,3464.00
2019-01-14T09:42:09.212Z,6312.00
2019-01-14T09:43:10.203Z,6860.00
2019-01-14T09:44:08.483Z,6320.00
2019-01-14T09:45:08.466Z,6092.00
2019-01-14T09:46:08.737Z,6032.00
2019-01-14T09:47:08.444Z,2756.00
2019-01-14T09:48:08.435Z,5720.00
2019-01-14T09:49:08.424Z,5832.00
2019-01-14T09:50:08.415Z,5768.00
2019-01-14T09:51:08.411Z,2704.00
2019-01-14T09:52:08.392Z,6072.00
2019-01-14T09:53:08.387Z,6336.00
2019-01-14T09:54:08.366Z,6220.00
2019-01-14T09:55:08.355Z,6008.00
2019-01-14T09:56:08.356Z,5996.00
2019-01-14T09:57:08.336Z,6044.00
2019-01-14T09:58:08.325Z,6192.00
2019-01-14T09:59:08.313Z,6288.00
2019-01-14T10:00:15.221Z,3488.00
2019-01-14T10:01:08.322Z,6208.00
2019-01-14T10:02:08.283Z,6084.00
2019-01-14T10:03:08.271Z,5956.00
2019-01-14T10:04:08.260Z,6564.00
2019-01-14T10:05:08.250Z,6684.00
2019-01-14T10:06:08.237Z,7180.00
2019-01-14T10:07:08.241Z,6592.00
2019-01-14T10:08:08.216Z,3924.00
2019-01-14T10:09:08.206Z,7000.00
2019-01-14T10:10:08.198Z,8976.00
2019-01-14T10:11:08.185Z,6784.00
2019-01-14T10:12:08.191Z,7328.00
2019-01-14T10:13:08.162Z,7120.00
2019-01-14T10:14:08.152Z,6648.00
2019-01-14T10:15:08.142Z,6792.00
2019-01-14T10:16:08.131Z,7168.00
2019-01-14T10:17:08.132Z,8480.00
2019-01-14T10:18:08.107Z,10440.00
2019-01-14T10:19:08.104Z,9492.00
2019-01-14T10:20:08.088Z,9252.00
2019-01-14T10:21:08.076Z,9640.00
2019-01-14T10:22:08.120Z,7260.00
2019-01-14T10:23:08.058Z,8836.00
2019-01-14T10:24:08.046Z,7348.00
2019-01-14T10:25:08.033Z,8108.00
2019-01-14T10:26:08.024Z,9580.00
2019-01-14T10:27:08.036Z,10060.00
2019-01-14T10:28:08.000Z,13848.00
2019-01-14T10:29:07.992Z,14784.00
2019-01-14T10:30:07.981Z,11356.00
2019-01-14T10:31:07.969Z,26976.00
2019-01-14T10:32:07.974Z,39008.00
2019-01-14T10:33:08.070Z,5240.00
2019-01-14T10:34:07.996Z,14748.00
2019-01-14T10:35:07.926Z,16160.00
2019-01-14T10:36:07.917Z,40576.00
2019-01-14T10:37:07.914Z,8504.00
2019-01-14T10:38:07.897Z,69536.00
2019-01-14T10:39:07.882Z,59552.00
2019-01-14T10:40:07.884Z,46880.00
2019-01-14T10:41:07.881Z,50400.00
2019-01-14T10:42:07.861Z,52800.00
2019-01-14T10:43:07.839Z,29632.00
2019-01-14T10:44:07.828Z,29664.00
2019-01-14T10:45:07.818Z,17984.00
2019-01-14T10:46:07.807Z,8328.00
2019-01-14T10:47:07.810Z,15328.00
2019-01-14T10:48:07.786Z,22048.00
2019-01-14T10:49:07.774Z,14816.00
2019-01-14T10:50:07.769Z,13948.00
2019-01-14T10:51:07.753Z,5180.00
2019-01-14T10:52:07.752Z,13196.00
2019-01-14T10:53:07.730Z,26400.00
2019-01-14T10:54:07.720Z,24224.00
2019-01-14T10:55:12.297Z,30848.00
2019-01-14T10:56:08.696Z,38496.00
2019-01-14T10:57:07.805Z,12544.00
2019-01-14T10:58:07.677Z,39008.00
2019-01-14T10:59:07.665Z,4936.00
2019-01-14T11:00:07.656Z,14056.00
2019-01-14T11:01:07.647Z,44832.00
2019-01-14T11:02:07.643Z,45088.00
2019-01-14T11:03:07.625Z,39520.00
2019-01-14T11:04:07.612Z,19712.00
2019-01-14T11:05:07.600Z,18144.00
2019-01-14T11:06:07.591Z,11452.00
2019-01-14T11:07:07.594Z,11336.00
2019-01-14T11:08:07.569Z,11412.00
2019-01-14T11:09:07.561Z,9668.00
2019-01-14T11:10:07.548Z,17152.00
2019-01-14T11:11:07.535Z,5444.00
2019-01-14T11:12:07.536Z,8340.00
2019-01-14T11:13:07.564Z,27904.00
2019-01-14T11:14:07.502Z,18816.00
2019-01-14T11:15:07.493Z,5368.00
2019-01-14T11:16:07.485Z,4476.00
2019-01-14T11:17:07.499Z,7508.00
2019-01-14T11:18:07.460Z,5384.00
2019-01-14T11:19:07.456Z,5920.00
2019-01-14T11:20:07.437Z,57824.00
2019-01-14T11:21:07.432Z,62432.00
2019-01-14T11:22:07.418Z,8036.00
2019-01-14T11:23:07.423Z,10072.00
2019-01-14T11:24:07.401Z,6416.00
2019-01-14T11:25:07.389Z,9252.00
2019-01-14T11:26:07.375Z,19168.00
2019-01-14T11:27:07.362Z,41088.00
2019-01-14T11:28:07.363Z,6824.00
2019-01-14T11:29:07.343Z,13960.00
2019-01-14T11:30:07.333Z,6940.00
2019-01-14T11:31:07.325Z,5760.00
2019-01-14T11:32:07.783Z,9444.00
2019-01-14T11:33:07.312Z,8132.00
2019-01-14T11:34:07.289Z,8488.00
2019-01-14T11:35:07.277Z,6696.00
2019-01-14T11:36:07.267Z,7644.00
2019-01-14T11:37:07.257Z,38944.00
2019-01-14T11:38:07.258Z,14440.00
2019-01-14T11:39:07.233Z,5980.00
2019-01-14T11:40:07.224Z,3928.00
2019-01-14T11:41:07.215Z,3432.00
2019-01-14T11:42:07.212Z,3476.00
2019-01-14T11:43:07.204Z,3008.00
2019-01-14T11:44:07.180Z,2564.00
2019-01-14T11:45:07.175Z,2264.00
2019-01-14T11:46:07.186Z,2164.00
2019-01-14T11:47:07.155Z,1696.00
2019-01-14T11:48:07.153Z,1576.00
2019-01-14T11:49:07.125Z,1512.00
2019-01-14T11:50:07.115Z,1420.00
2019-01-14T11:51:07.105Z,1428.00
2019-01-14T11:52:07.095Z,1268.00
2019-01-14T11:53:07.097Z,1220.00
2019-01-14T11:54:07.073Z,908.00
2019-01-14T11:55:07.059Z,764.00
2019-01-14T11:56:07.057Z,952.00
2019-01-14T11:57:07.880Z,1080.00
2019-01-14T11:58:07.042Z,1096.00
2019-01-14T11:59:07.027Z,1136.00
2019-01-14T12:00:07.010Z,1252.00
2019-01-14T12:01:06.996Z,1136.00
2019-01-14T12:02:06.988Z,912.00
2019-01-14T12:03:08.543Z,1044.00
2019-01-14T12:04:06.969Z,968.00
2019-01-14T12:05:06.956Z,1040.00
2019-01-14T12:06:06.943Z,1044.00
2019-01-14T12:07:06.932Z,1172.00
2019-01-14T12:08:06.936Z,1092.00
2019-01-14T12:09:12.220Z,1116.00
2019-01-14T12:10:07.898Z,1140.00
2019-01-14T12:11:06.888Z,1252.00
2019-01-14T12:12:06.878Z,1216.00
2019-01-14T12:13:06.877Z,1132.00
2019-01-14T12:14:06.857Z,1336.00
2019-01-14T12:15:06.847Z,1620.00
2019-01-14T12:16:06.837Z,2052.00
2019-01-14T12:17:06.825Z,2452.00
2019-01-14T12:18:06.825Z,2364.00
2019-01-14T12:19:06.802Z,2444.00
2019-01-14T12:20:06.790Z,2720.00
2019-01-14T12:21:06.786Z,2860.00
2019-01-14T12:22:06.770Z,2656.00
2019-01-14T12:23:06.785Z,2152.00
2019-01-14T12:24:06.753Z,1952.00
2019-01-14T12:25:06.738Z,1944.00
2019-01-14T12:26:06.726Z,1868.00
2019-01-14T12:27:06.723Z,1792.00
2019-01-14T12:28:06.721Z,1608.00
2019-01-14T12:29:06.696Z,1436.00
2019-01-14T12:30:06.691Z,1480.00
2019-01-14T12:31:06.674Z,1380.00
2019-01-14T12:32:06.664Z,1316.00
2019-01-14T12:33:06.668Z,1212.00
2019-01-14T12:34:06.640Z,1180.00
2019-01-14T12:35:06.632Z,1096.00
2019-01-14T12:36:06.622Z,1124.00
2019-01-14T12:37:06.612Z,1024.00
2019-01-14T12:38:06.641Z,964.00
2019-01-14T12:39:06.614Z,900.00
2019-01-14T12:40:06.578Z,956.00
2019-01-14T12:41:06.567Z,1004.00
2019-01-14T12:42:06.555Z,1128.00
2019-01-14T12:43:06.544Z,1124.00
2019-01-14T12:44:06.547Z,952.00
2019-01-14T12:45:06.526Z,984.00